Astor — C6JR3 — position and weather

sailwx.info

Track history (hours):
 
Tides and Currents Weather Stations Pressure Air Temp Water Temp Dewpoint Dewpoint Depression Visibility Wind Speed Wind Dir Waves Ship Positions

Astor

Operator: Passat Ship Management Ltd

Last reported at 2017-May-28 12:00 UTC. Time now 2017-May-28 12:18 UTC.
Position N 68°06' E 013°36'.

Length 176 m; draft 6.2 m.

Type: Ship. MMSI: 308214000.

Date/timePositionNaut miles runAvg speedWind from/ knotsBaromVisibWave heightAir tempDewpointWater temp
2017-May-28 12:00N 68°06' E 013°36'1 2.8
2017-May-28 11:29N 68°08' E 013°34'0 0.0
2017-May-28 10:59N 68°08' E 013°34'0 0.0
2017-May-28 10:29N 68°08' E 013°34'0 0.0
2017-May-28 09:58N 68°08' E 013°34'0 0.0
2017-May-28 09:28N 68°08' E 013°34'0 0.0
2017-May-28 08:58N 68°08' E 013°34'0 0.0
2017-May-28 08:28N 68°08' E 013°34'0 0.0
2017-May-28 08:00N 68°08' E 013°34'0 0.0
2017-May-28 07:30N 68°08' E 013°34'0 0.0
2017-May-28 07:00N 68°08' E 013°34'0 0.0
2017-May-28 06:30N 68°08' E 013°34'0 0.0
2017-May-28 05:57N 68°08' E 013°34'0 0.0
2017-May-28 05:29N 68°08' E 013°34'0 0.0
2017-May-28 05:01N 68°08' E 013°34'2 3.2
2017-May-28 04:30N 68°06' E 013°36'610.9
2017-May-28 04:00N 68°01' E 013°36'611.2
2017-May-28 03:30N 67°55' E 013°32'611.2
2017-May-28 03:00N 67°51' E 013°22'4 8.5
2017-May-28 02:30N 67°47' E 013°17'4 8.2
2017-May-28 02:00N 67°44' E 013°12'4 8.0
2017-May-28 01:30N 67°40' E 013°07'4 8.2
2017-May-28 01:00N 67°37' E 013°02'4 8.4
2017-May-28 00:31N 67°33' E 012°57'5 9.1
2017-May-28 00:00N 67°29' E 012°52'5 9.4
2017-May-27 23:30N 67°25' E 012°46'30512.3
2017-May-26 22:38N 63°06' E 006°21'212.4
2017-May-26 22:30N 63°04' E 006°19'612.6
2017-May-26 21:59N 62°59' E 006°12'612.5
2017-May-26 21:29N 62°54' E 006°04'612.1
2017-May-26 21:00N 62°49' E 005°57'611.8
2017-May-26 20:31N 62°44' E 005°51'611.7
2017-May-26 20:00N 62°39' E 005°44'611.4
2017-May-26 19:30N 62°33' E 005°42'611.4
2017-May-26 19:00N 62°29' E 005°49'611.8
2017-May-26 18:30N 62°27' E 006°01'4 8.0
2017-May-26 18:00N 62°28' E 006°10'0 0.7
2017-May-26 17:28N 62°28' E 006°09'0 0.0
2017-May-26 16:58N 62°28' E 006°09'0 0.0
2017-May-26 16:30N 62°28' E 006°09'0 0.0
2017-May-26 16:00N 62°28' E 006°09'0 0.0
2017-May-26 15:30N 62°28' E 006°09'0 0.0
2017-May-26 15:00N 62°28' E 006°09'0 0.0
2017-May-26 13:59N 62°28' E 006°09'0 0.0
2017-May-26 13:29N 62°28' E 006°09'0 0.0
2017-May-26 12:59N 62°28' E 006°09'0 0.0
2017-May-26 12:29N 62°28' E 006°09'0 0.0
2017-May-26 11:58N 62°28' E 006°09'0 0.0
2017-May-26 11:28N 62°28' E 006°09'0 0.0
2017-May-26 10:58N 62°28' E 006°09'1 2.0
2017-May-26 10:30N 62°28' E 006°11'4 8.5
2017-May-26 10:00N 62°27' E 006°02'611.5
2017-May-26 09:30N 62°28' E 005°49'713.9
2017-May-26 09:00N 62°30' E 005°35'815.3
2017-May-26 08:29N 62°27' E 005°19'815.4
2017-May-26 08:00N 62°24' E 005°03'715.3
2017-May-26 07:30N 62°22' E 004°49'7013.6
2017-May-26 02:20N 61°13' E 004°17'515.6
2017-May-26 02:00N 61°08' E 004°18'815.1
2017-May-26 01:30N 61°01' E 004°24'815.3
2017-May-26 01:00N 60°54' E 004°31'4 8.6
2017-May-26 00:30N 60°53' E 004°40'713.0
2017-May-26 00:00N 60°59' E 004°46'815.5
2017-May-25 23:30N 61°03' E 004°59'714.9
2017-May-25 23:00N 61°05' E 005°14'714.5
2017-May-25 22:30N 61°04' E 005°28'815.5
2017-May-25 22:00N 61°08' E 005°43'815.4
2017-May-25 21:30N 61°08' E 005°59'815.3
2017-May-25 21:00N 61°07' E 006°14'815.0
2017-May-25 20:30N 61°07' E 006°30'713.8
2017-May-25 20:00N 61°11' E 006°41'714.4
2017-May-25 19:30N 61°07' E 006°55'714.2
2017-May-25 19:00N 61°01' E 007°02'611.9
2017-May-25 18:30N 60°56' E 007°09'4 8.6
2017-May-25 18:00N 60°52' E 007°08'0 0.1
2017-May-25 17:25N 60°52' E 007°08'0 0.0
2017-May-25 16:58N 60°52' E 007°08'0 0.0
2017-May-25 16:28N 60°52' E 007°08'0 0.0
2017-May-25 15:58N 60°52' E 007°08'0 0.0
2017-May-25 15:30N 60°52' E 007°08'0 0.0
2017-May-25 15:00N 60°52' E 007°08'0 0.4
2017-May-25 14:29N 60°52' E 007°08'0 0.4
2017-May-25 13:28N 60°53' E 007°08'0 0.0
2017-May-25 12:58N 60°53' E 007°08'0 0.1
2017-May-25 12:28N 60°53' E 007°08'0 0.0
2017-May-25 11:58N 60°53' E 007°08'0 0.1
2017-May-25 11:30N 60°53' E 007°08'0 0.0
2017-May-25 11:00N 60°53' E 007°08'0 0.1
2017-May-25 10:30N 60°53' E 007°08'2 3.0
2017-May-25 09:59N 60°54' E 007°09'5 9.5
2017-May-25 09:30N 60°58' E 007°05'611.8
2017-May-25 09:00N 61°04' E 007°01'612.2
2017-May-25 08:30N 61°08' E 006°53'612.7
2017-May-25 08:00N 61°11' E 006°41'5 9.9
2017-May-25 07:30N 61°07' E 006°35'1 1.5
2017-May-25 07:00N 61°06' E 006°35'0 0.4
2017-May-25 06:30N 61°06' E 006°35'0 0.5
2017-May-25 06:00N 61°06' E 006°35'0 0.9
2017-May-25 05:30N 61°06' E 006°34'3 6.0
2017-May-25 05:00N 61°06' E 006°28'612.7
2017-May-25 04:30N 61°07' E 006°15'612.9
2017-May-25 03:59N 61°08' E 006°02'613.0
2017-May-25 03:30N 61°08' E 005°49'714.2
2017-May-25 02:59N 61°06' E 005°34'713.8
2017-May-25 02:31N 61°04' E 005°21'713.9
2017-May-25 02:00N 61°06' E 005°07'714.5
2017-May-25 01:31N 61°02' E 004°54'714.3
2017-May-25 01:00N 60°57' E 004°43'713.2
2017-May-25 00:29N 60°50' E 004°41'611.9
2017-May-25 00:00N 60°45' E 004°45'5 9.3
2017-May-24 23:30N 60°44' E 004°36'713.2
2017-May-24 23:00N 60°38' E 004°30'713.4
2017-May-24 22:30N 60°32' E 004°23'12314.2
2017-May-24 13:49N 58°29' E 004°36'19514.6
2017-May-24 00:27N 55°28' E 006°48'714.6
2017-May-24 00:01N 55°22' E 006°52'714.6
2017-May-23 23:30N 55°15' E 006°57'714.7
2017-May-23 23:00N 55°08' E 007°01'714.5
2017-May-23 22:30N 55°01' E 007°06'714.4
2017-May-23 22:00N 54°54' E 007°10'714.3
2017-May-23 21:31N 54°48' E 007°14'6811.9
2017-May-23 15:49N 53°48' E 008°08'514.1
2017-May-23 15:30N 53°44' E 008°14'914.7
2017-May-23 14:52N 53°39' E 008°25'513.4
2017-May-23 14:30N 53°35' E 008°31'2 0.2
2017-May-23 06:31N 53°34' E 008°33'0 0.7
2017-May-23 06:26N 53°34' E 008°33'2 5.4
2017-May-23 05:59N 53°36' E 008°31'713.2
2017-May-23 05:29N 53°40' E 008°23'815.5
2017-May-23 04:59N 53°45' E 008°12'715.3
2017-May-23 04:30N 53°50' E 008°03'813.2
2017-May-23 03:56N 53°52' E 007°51'3 7.6
2017-May-23 03:29N 53°53' E 007°46'611.4
2017-May-23 02:59N 53°54' E 007°36'7512.4
2017-May-22 20:58N 53°36' E 005°33'610.6
2017-May-22 20:22N 53°33' E 005°23'410.5
2017-May-22 19:58N 53°32' E 005°17'510.6
2017-May-22 19:29N 53°30' E 005°09'510.9
2017-May-22 19:00N 53°28' E 005°01'611.1
2017-May-22 18:30N 53°26' E 004°52'511.0
2017-May-22 18:00N 53°23' E 004°44'611.3
2017-May-22 17:30N 53°18' E 004°39'611.5
2017-May-22 17:00N 53°13' E 004°35'612.0
2017-May-22 16:30N 53°08' E 004°30'612.0
2017-May-22 16:00N 53°03' E 004°25'611.4
2017-May-22 15:30N 52°58' E 004°21'611.9
2017-May-22 15:00N 52°53' E 004°16'1313.2
2017-May-22 14:00N 52°42' E 004°03'815.8
2017-May-22 13:29N 52°36' E 003°53'8217.0
2017-May-22 08:38N 51°35' E 002°24'317.1
2017-May-22 08:29N 51°33' E 002°21'816.9
2017-May-22 08:00N 51°27' E 002°13'816.7
2017-May-22 07:30N 51°19' E 002°07'815.9
2017-May-22 07:00N 51°13' E 001°60'816.6
2017-May-22 06:30N 51°09' E 001°48'816.2
2017-May-22 06:00N 51°03' E 001°39'816.0
2017-May-22 05:31N 50°57' E 001°30'815.5
2017-May-22 05:00N 50°50' E 001°26'814.9
2017-May-22 04:30N 50°43' E 001°22'2715.3
2017-May-22 02:44N 50°29' E 000°46'815.6
2017-May-22 02:15N 50°27' E 000°34'415.5
2017-May-22 02:00N 50°26' E 000°28'815.3
2017-May-22 01:31N 50°24' E 000°17'815.0
2017-May-22 01:00N 50°22' E 000°05'714.8
2017-May-22 00:30N 50°21' W 000°06'714.7
2017-May-22 00:01N 50°22' W 000°18'714.6
2017-May-21 23:30N 50°24' W 000°29'714.8
2017-May-21 23:00N 50°29' W 000°38'714.8
2017-May-21 22:30N 50°34' W 000°46'713.5
2017-May-21 22:01N 50°39' W 000°54'4 8.9
2017-May-21 21:30N 50°42' W 000°58'511.0
2017-May-21 21:00N 50°45' W 001°05'3 6.6
2017-May-21 20:30N 50°49' W 001°06'0 0.3
2017-May-21 19:59N 50°49' W 001°06'0 0.0
2017-May-21 19:29N 50°49' W 001°06'0 0.0
2017-May-21 18:59N 50°49' W 001°06'0 0.0
2017-May-21 18:29N 50°49' W 001°06'0 0.0
2017-May-21 17:59N 50°49' W 001°06'0 0.0
2017-May-21 17:28N 50°49' W 001°06'0 0.0
2017-May-21 16:58N 50°49' W 001°06'0 0.0
2017-May-21 16:28N 50°49' W 001°06'0 0.0
2017-May-21 15:58N 50°49' W 001°06'0 0.0
2017-May-21 15:30N 50°49' W 001°06'0 0.0
2017-May-21 15:00N 50°49' W 001°06'0 0.0
2017-May-21 14:30N 50°49' W 001°06'0 0.0
2017-May-21 13:30N 50°49' W 001°06'0 0.0
2017-May-21 12:59N 50°49' W 001°06'0 0.0
2017-May-21 12:29N 50°49' W 001°06'0 0.0
2017-May-21 11:59N 50°49' W 001°06'0 0.0
2017-May-21 11:31N 50°49' W 001°06'2 4.4
2017-May-21 11:00N 50°46' W 001°06'611.9
2017-May-21 10:30N 50°42' W 000°59'510.6
2017-May-21 10:01N 50°38' W 001°03'613.0
2017-May-21 09:31N 50°34' W 001°12'1013.3
2017-May-21 08:46N 50°31' W 001°26'414.2
2017-May-21 08:28N 50°30' W 001°33'914.5
2017-May-21 07:49N 50°27' W 001°47'4414.3
2017-May-21 04:45N 50°16' W 002°54'414.6
2017-May-21 04:30N 50°15' W 002°59'714.5
2017-May-21 04:00N 50°14' W 003°10'816.0
2017-May-21 03:30N 50°12' W 003°22'917.1
2017-May-21 03:00N 50°09' W 003°35'917.2
2017-May-21 02:30N 50°07' W 003°48'916.9
2017-May-21 02:00N 50°05' W 004°01'816.8
2017-May-21 01:30N 50°03' W 004°13'816.7
2017-May-21 01:00N 50°00' W 004°26'916.7
2017-May-21 00:29N 49°59' W 004°39'816.7
2017-May-21 00:00N 49°57' W 004°51'916.7
2017-May-20 23:28N 49°55' W 005°05'14114.4
2017-May-20 13:41N 51°30' W 007°50'316.7
2017-May-20 13:30N 51°32' W 007°53'816.8
2017-May-20 13:00N 51°38' W 008°02'816.2
2017-May-20 12:30N 51°44' W 008°11'611.9
2017-May-20 12:00N 51°49' W 008°16'2 4.2
2017-May-20 11:30N 51°51' W 008°18'0 0.0
2017-May-20 11:00N 51°51' W 008°18'0 0.0
2017-May-20 10:29N 51°51' W 008°18'0 0.0
2017-May-20 09:59N 51°51' W 008°18'0 0.0
2017-May-20 09:29N 51°51' W 008°18'0 0.0
2017-May-20 08:59N 51°51' W 008°18'0 0.0
2017-May-20 08:28N 51°51' W 008°18'0 0.0
2017-May-20 07:58N 51°51' W 008°18'0 0.0
2017-May-20 07:28N 51°51' W 008°18'0 0.0
2017-May-20 06:58N 51°51' W 008°18'0 0.0
2017-May-20 06:30N 51°51' W 008°18'1 2.6
2017-May-20 06:00N 51°51' W 008°16'510.2
2017-May-20 05:30N 51°46' W 008°15'4 7.4
2017-May-20 05:00N 51°45' W 008°09'714.6
2017-May-20 04:30N 51°47' W 007°58'816.2
2017-May-20 04:00N 51°49' W 007°45'816.2
2017-May-20 03:30N 51°51' W 007°33'816.1
2017-May-20 03:00N 51°54' W 007°20'815.9
2017-May-20 02:30N 51°56' W 007°08'815.9
2017-May-20 01:59N 51°59' W 006°55'715.9
2017-May-20 01:30N 52°01' W 006°43'8014.2
2017-May-19 19:55N 53°13' W 005°47'717.1
2017-May-19 19:30N 53°19' W 005°54'713.2
2017-May-19 19:00N 53°20' W 006°05'5 9.3
2017-May-19 18:30N 53°21' W 006°13'0 1.0
2017-May-19 18:00N 53°21' W 006°13'0 0.0
2017-May-19 17:18N 53°21' W 006°13'0 0.0
2017-May-19 17:00N 53°21' W 006°13'0 0.0
2017-May-19 16:29N 53°21' W 006°13'0 0.0
2017-May-19 15:47N 53°21' W 006°13'0 0.0
2017-May-19 15:08N 53°21' W 006°13'0 0.0
2017-May-19 14:53N 53°21' W 006°13'0 0.0
2017-May-19 13:46N 53°21' W 006°13'0 0.0
2017-May-19 13:28N 53°21' W 006°13'0 0.0
2017-May-19 12:59N 53°21' W 006°13'0 0.0
2017-May-19 12:22N 53°21' W 006°13'0 0.0
2017-May-19 12:00N 53°21' W 006°13'0 0.0
2017-May-19 11:30N 53°21' W 006°13'0 0.0
2017-May-19 10:55N 53°21' W 006°13'1 1.6
2017-May-19 10:31N 53°21' W 006°12'4 8.8
2017-May-19 10:00N 53°20' W 006°05'510.4
2017-May-19 09:30N 53°24' W 005°59'612.5
2017-May-19 09:00N 53°30' W 005°55'1012.3
2017-May-19 08:13N 53°39' W 005°48'312.4
2017-May-19 08:00N 53°41' W 005°46'612.5
2017-May-19 07:30N 53°47' W 005°43'713.8
2017-May-19 07:00N 53°53' W 005°39'815.2
2017-May-19 06:30N 54°00' W 005°34'715.0
2017-May-19 06:00N 54°07' W 005°27'714.8
2017-May-19 05:30N 54°13' W 005°21'714.7
2017-May-19 05:00N 54°20' W 005°16'713.7
2017-May-19 04:30N 54°27' W 005°13'714.9
2017-May-19 04:00N 54°34' W 005°17'815.5
2017-May-19 03:30N 54°41' W 005°22'815.8
2017-May-19 03:00N 54°48' W 005°29'815.9
2017-May-19 02:30N 54°55' W 005°35'815.8
2017-May-19 01:59N 55°02' W 005°43'1416.4
2017-May-19 01:07N 55°13' W 005°57'316.9
2017-May-19 00:58N 55°15' W 006°00'816.0
2017-May-19 00:29N 55°21' W 006°10'815.7
2017-May-19 00:00N 55°23' W 006°22'815.1
2017-May-18 23:30N 55°24' W 006°35'814.8
2017-May-18 23:00N 55°26' W 006°48'714.5
2017-May-18 22:30N 55°27' W 007°01'814.4
2017-May-18 21:58N 55°28' W 007°14'814.2
2017-May-18 21:26N 55°27' W 007°27'1014.1
2017-May-18 20:44N 55°24' W 007°44'414.3
2017-May-18 20:28N 55°23' W 007°50'714.5
2017-May-18 19:58N 55°21' W 008°03'714.2
2017-May-18 19:29N 55°19' W 008°15'613.2
2017-May-18 18:59N 55°15' W 008°23'814.1
2017-May-18 18:27N 55°08' W 008°30'814.4
2017-May-18 17:52N 55°01' W 008°38'  
Track history (hours):
 
Tides and Currents Weather Stations Pressure Air Temp Water Temp Dewpoint Dewpoint Depression Visibility Wind Speed Wind Dir Waves Ship Positions

Astor

Operator: Passat Ship Management Ltd

Last reported at 2017-May-28 12:00 UTC. Time now 2017-May-28 12:18 UTC.
Position N 68°06' E 013°36'.

Length 176 m; draft 6.2 m.

Type: Ship. MMSI: 308214000.

Date/timePositionNaut miles runAvg speedWind from/ knotsBaromVisibWave heightAir tempDewpointWater temp
2017-May-28 12:00N 68°06' E 013°36'1 2.8
2017-May-28 11:29N 68°08' E 013°34'0 0.0
2017-May-28 10:59N 68°08' E 013°34'0 0.0
2017-May-28 10:29N 68°08' E 013°34'0 0.0
2017-May-28 09:58N 68°08' E 013°34'0 0.0
2017-May-28 09:28N 68°08' E 013°34'0 0.0
2017-May-28 08:58N 68°08' E 013°34'0 0.0
2017-May-28 08:28N 68°08' E 013°34'0 0.0
2017-May-28 08:00N 68°08' E 013°34'0 0.0
2017-May-28 07:30N 68°08' E 013°34'0 0.0
2017-May-28 07:00N 68°08' E 013°34'0 0.0
2017-May-28 06:30N 68°08' E 013°34'0 0.0
2017-May-28 05:57N 68°08' E 013°34'0 0.0
2017-May-28 05:29N 68°08' E 013°34'0 0.0
2017-May-28 05:01N 68°08' E 013°34'2 3.2
2017-May-28 04:30N 68°06' E 013°36'610.9
2017-May-28 04:00N 68°01' E 013°36'611.2
2017-May-28 03:30N 67°55' E 013°32'611.2
2017-May-28 03:00N 67°51' E 013°22'4 8.5
2017-May-28 02:30N 67°47' E 013°17'4 8.2
2017-May-28 02:00N 67°44' E 013°12'4 8.0
2017-May-28 01:30N 67°40' E 013°07'4 8.2
2017-May-28 01:00N 67°37' E 013°02'4 8.4
2017-May-28 00:31N 67°33' E 012°57'5 9.1
2017-May-28 00:00N 67°29' E 012°52'5 9.4
2017-May-27 23:30N 67°25' E 012°46'30512.3
2017-May-26 22:38N 63°06' E 006°21'212.4
2017-May-26 22:30N 63°04' E 006°19'612.6
2017-May-26 21:59N 62°59' E 006°12'612.5
2017-May-26 21:29N 62°54' E 006°04'612.1
2017-May-26 21:00N 62°49' E 005°57'611.8
2017-May-26 20:31N 62°44' E 005°51'611.7
2017-May-26 20:00N 62°39' E 005°44'611.4
2017-May-26 19:30N 62°33' E 005°42'611.4
2017-May-26 19:00N 62°29' E 005°49'611.8
2017-May-26 18:30N 62°27' E 006°01'4 8.0
2017-May-26 18:00N 62°28' E 006°10'0 0.7
2017-May-26 17:28N 62°28' E 006°09'0 0.0
2017-May-26 16:58N 62°28' E 006°09'0 0.0
2017-May-26 16:30N 62°28' E 006°09'0 0.0
2017-May-26 16:00N 62°28' E 006°09'0 0.0
2017-May-26 15:30N 62°28' E 006°09'0 0.0
2017-May-26 15:00N 62°28' E 006°09'0 0.0
2017-May-26 13:59N 62°28' E 006°09'0 0.0
2017-May-26 13:29N 62°28' E 006°09'0 0.0
2017-May-26 12:59N 62°28' E 006°09'0 0.0
2017-May-26 12:29N 62°28' E 006°09'0 0.0
2017-May-26 11:58N 62°28' E 006°09'0 0.0
2017-May-26 11:28N 62°28' E 006°09'0 0.0
2017-May-26 10:58N 62°28' E 006°09'1 2.0
2017-May-26 10:30N 62°28' E 006°11'4 8.5
2017-May-26 10:00N 62°27' E 006°02'611.5
2017-May-26 09:30N 62°28' E 005°49'713.9
2017-May-26 09:00N 62°30' E 005°35'815.3
2017-May-26 08:29N 62°27' E 005°19'815.4
2017-May-26 08:00N 62°24' E 005°03'715.3
2017-May-26 07:30N 62°22' E 004°49'7013.6
2017-May-26 02:20N 61°13' E 004°17'515.6
2017-May-26 02:00N 61°08' E 004°18'815.1
2017-May-26 01:30N 61°01' E 004°24'815.3
2017-May-26 01:00N 60°54' E 004°31'4 8.6
2017-May-26 00:30N 60°53' E 004°40'713.0
2017-May-26 00:00N 60°59' E 004°46'815.5
2017-May-25 23:30N 61°03' E 004°59'714.9
2017-May-25 23:00N 61°05' E 005°14'714.5
2017-May-25 22:30N 61°04' E 005°28'815.5
2017-May-25 22:00N 61°08' E 005°43'815.4
2017-May-25 21:30N 61°08' E 005°59'815.3
2017-May-25 21:00N 61°07' E 006°14'815.0
2017-May-25 20:30N 61°07' E 006°30'713.8
2017-May-25 20:00N 61°11' E 006°41'714.4
2017-May-25 19:30N 61°07' E 006°55'714.2
2017-May-25 19:00N 61°01' E 007°02'611.9
2017-May-25 18:30N 60°56' E 007°09'4 8.6
2017-May-25 18:00N 60°52' E 007°08'0 0.1
2017-May-25 17:25N 60°52' E 007°08'0 0.0
2017-May-25 16:58N 60°52' E 007°08'0 0.0
2017-May-25 16:28N 60°52' E 007°08'0 0.0
2017-May-25 15:58N 60°52' E 007°08'0 0.0
2017-May-25 15:30N 60°52' E 007°08'0 0.0
2017-May-25 15:00N 60°52' E 007°08'0 0.4
2017-May-25 14:29N 60°52' E 007°08'0 0.4
2017-May-25 13:28N 60°53' E 007°08'0 0.0
2017-May-25 12:58N 60°53' E 007°08'0 0.1
2017-May-25 12:28N 60°53' E 007°08'0 0.0
2017-May-25 11:58N 60°53' E 007°08'0 0.1
2017-May-25 11:30N 60°53' E 007°08'0 0.0
2017-May-25 11:00N 60°53' E 007°08'0 0.1
2017-May-25 10:30N 60°53' E 007°08'2 3.0
2017-May-25 09:59N 60°54' E 007°09'5 9.5
2017-May-25 09:30N 60°58' E 007°05'611.8
2017-May-25 09:00N 61°04' E 007°01'612.2
2017-May-25 08:30N 61°08' E 006°53'612.7
2017-May-25 08:00N 61°11' E 006°41'5 9.9
2017-May-25 07:30N 61°07' E 006°35'1 1.5
2017-May-25 07:00N 61°06' E 006°35'0 0.4
2017-May-25 06:30N 61°06' E 006°35'0 0.5
2017-May-25 06:00N 61°06' E 006°35'0 0.9
2017-May-25 05:30N 61°06' E 006°34'3 6.0
2017-May-25 05:00N 61°06' E 006°28'612.7
2017-May-25 04:30N 61°07' E 006°15'612.9
2017-May-25 03:59N 61°08' E 006°02'613.0
2017-May-25 03:30N 61°08' E 005°49'714.2
2017-May-25 02:59N 61°06' E 005°34'713.8
2017-May-25 02:31N 61°04' E 005°21'713.9
2017-May-25 02:00N 61°06' E 005°07'714.5
2017-May-25 01:31N 61°02' E 004°54'714.3
2017-May-25 01:00N 60°57' E 004°43'713.2
2017-May-25 00:29N 60°50' E 004°41'611.9
2017-May-25 00:00N 60°45' E 004°45'5 9.3
2017-May-24 23:30N 60°44' E 004°36'713.2
2017-May-24 23:00N 60°38' E 004°30'713.4
2017-May-24 22:30N 60°32' E 004°23'12314.2
2017-May-24 13:49N 58°29' E 004°36'19514.6
2017-May-24 00:27N 55°28' E 006°48'714.6
2017-May-24 00:01N 55°22' E 006°52'714.6
2017-May-23 23:30N 55°15' E 006°57'714.7
2017-May-23 23:00N 55°08' E 007°01'714.5
2017-May-23 22:30N 55°01' E 007°06'714.4
2017-May-23 22:00N 54°54' E 007°10'714.3
2017-May-23 21:31N 54°48' E 007°14'6811.9
2017-May-23 15:49N 53°48' E 008°08'514.1
2017-May-23 15:30N 53°44' E 008°14'914.7
2017-May-23 14:52N 53°39' E 008°25'513.4
2017-May-23 14:30N 53°35' E 008°31'2 0.2
2017-May-23 06:31N 53°34' E 008°33'0 0.7
2017-May-23 06:26N 53°34' E 008°33'2 5.4
2017-May-23 05:59N 53°36' E 008°31'713.2
2017-May-23 05:29N 53°40' E 008°23'815.5
2017-May-23 04:59N 53°45' E 008°12'715.3
2017-May-23 04:30N 53°50' E 008°03'813.2
2017-May-23 03:56N 53°52' E 007°51'3 7.6
2017-May-23 03:29N 53°53' E 007°46'611.4
2017-May-23 02:59N 53°54' E 007°36'7512.4
2017-May-22 20:58N 53°36' E 005°33'610.6
2017-May-22 20:22N 53°33' E 005°23'410.5
2017-May-22 19:58N 53°32' E 005°17'510.6
2017-May-22 19:29N 53°30' E 005°09'510.9
2017-May-22 19:00N 53°28' E 005°01'611.1
2017-May-22 18:30N 53°26' E 004°52'511.0
2017-May-22 18:00N 53°23' E 004°44'611.3
2017-May-22 17:30N 53°18' E 004°39'611.5
2017-May-22 17:00N 53°13' E 004°35'612.0
2017-May-22 16:30N 53°08' E 004°30'612.0
2017-May-22 16:00N 53°03' E 004°25'611.4
2017-May-22 15:30N 52°58' E 004°21'611.9
2017-May-22 15:00N 52°53' E 004°16'1313.2
2017-May-22 14:00N 52°42' E 004°03'815.8
2017-May-22 13:29N 52°36' E 003°53'8217.0
2017-May-22 08:38N 51°35' E 002°24'317.1
2017-May-22 08:29N 51°33' E 002°21'816.9
2017-May-22 08:00N 51°27' E 002°13'816.7
2017-May-22 07:30N 51°19' E 002°07'815.9
2017-May-22 07:00N 51°13' E 001°60'816.6
2017-May-22 06:30N 51°09' E 001°48'816.2
2017-May-22 06:00N 51°03' E 001°39'816.0
2017-May-22 05:31N 50°57' E 001°30'815.5
2017-May-22 05:00N 50°50' E 001°26'814.9
2017-May-22 04:30N 50°43' E 001°22'2715.3
2017-May-22 02:44N 50°29' E 000°46'815.6
2017-May-22 02:15N 50°27' E 000°34'415.5
2017-May-22 02:00N 50°26' E 000°28'815.3
2017-May-22 01:31N 50°24' E 000°17'815.0
2017-May-22 01:00N 50°22' E 000°05'714.8
2017-May-22 00:30N 50°21' W 000°06'714.7
2017-May-22 00:01N 50°22' W 000°18'714.6
2017-May-21 23:30N 50°24' W 000°29'714.8
2017-May-21 23:00N 50°29' W 000°38'714.8
2017-May-21 22:30N 50°34' W 000°46'713.5
2017-May-21 22:01N 50°39' W 000°54'4 8.9
2017-May-21 21:30N 50°42' W 000°58'511.0
2017-May-21 21:00N 50°45' W 001°05'3 6.6
2017-May-21 20:30N 50°49' W 001°06'0 0.3
2017-May-21 19:59N 50°49' W 001°06'0 0.0
2017-May-21 19:29N 50°49' W 001°06'0 0.0
2017-May-21 18:59N 50°49' W 001°06'0 0.0
2017-May-21 18:29N 50°49' W 001°06'0 0.0
2017-May-21 17:59N 50°49' W 001°06'0 0.0
2017-May-21 17:28N 50°49' W 001°06'0 0.0
2017-May-21 16:58N 50°49' W 001°06'0 0.0
2017-May-21 16:28N 50°49' W 001°06'0 0.0
2017-May-21 15:58N 50°49' W 001°06'0 0.0
2017-May-21 15:30N 50°49' W 001°06'0 0.0
2017-May-21 15:00N 50°49' W 001°06'0 0.0
2017-May-21 14:30N 50°49' W 001°06'0 0.0
2017-May-21 13:30N 50°49' W 001°06'0 0.0
2017-May-21 12:59N 50°49' W 001°06'0 0.0
2017-May-21 12:29N 50°49' W 001°06'0 0.0
2017-May-21 11:59N 50°49' W 001°06'0 0.0
2017-May-21 11:31N 50°49' W 001°06'2 4.4
2017-May-21 11:00N 50°46' W 001°06'611.9
2017-May-21 10:30N 50°42' W 000°59'510.6
2017-May-21 10:01N 50°38' W 001°03'613.0
2017-May-21 09:31N 50°34' W 001°12'1013.3
2017-May-21 08:46N 50°31' W 001°26'414.2
2017-May-21 08:28N 50°30' W 001°33'914.5
2017-May-21 07:49N 50°27' W 001°47'4414.3
2017-May-21 04:45N 50°16' W 002°54'414.6
2017-May-21 04:30N 50°15' W 002°59'714.5
2017-May-21 04:00N 50°14' W 003°10'816.0
2017-May-21 03:30N 50°12' W 003°22'917.1
2017-May-21 03:00N 50°09' W 003°35'917.2
2017-May-21 02:30N 50°07' W 003°48'916.9
2017-May-21 02:00N 50°05' W 004°01'816.8
2017-May-21 01:30N 50°03' W 004°13'816.7
2017-May-21 01:00N 50°00' W 004°26'916.7
2017-May-21 00:29N 49°59' W 004°39'816.7
2017-May-21 00:00N 49°57' W 004°51'916.7
2017-May-20 23:28N 49°55' W 005°05'14114.4
2017-May-20 13:41N 51°30' W 007°50'316.7
2017-May-20 13:30N 51°32' W 007°53'816.8
2017-May-20 13:00N 51°38' W 008°02'816.2
2017-May-20 12:30N 51°44' W 008°11'611.9
2017-May-20 12:00N 51°49' W 008°16'2 4.2
2017-May-20 11:30N 51°51' W 008°18'0 0.0
2017-May-20 11:00N 51°51' W 008°18'0 0.0
2017-May-20 10:29N 51°51' W 008°18'0 0.0
2017-May-20 09:59N 51°51' W 008°18'0 0.0
2017-May-20 09:29N 51°51' W 008°18'0 0.0
2017-May-20 08:59N 51°51' W 008°18'0 0.0
2017-May-20 08:28N 51°51' W 008°18'0 0.0
2017-May-20 07:58N 51°51' W 008°18'0 0.0
2017-May-20 07:28N 51°51' W 008°18'0 0.0
2017-May-20 06:58N 51°51' W 008°18'0 0.0
2017-May-20 06:30N 51°51' W 008°18'1 2.6
2017-May-20 06:00N 51°51' W 008°16'510.2
2017-May-20 05:30N 51°46' W 008°15'4 7.4
2017-May-20 05:00N 51°45' W 008°09'714.6
2017-May-20 04:30N 51°47' W 007°58'816.2
2017-May-20 04:00N 51°49' W 007°45'816.2
2017-May-20 03:30N 51°51' W 007°33'816.1
2017-May-20 03:00N 51°54' W 007°20'815.9
2017-May-20 02:30N 51°56' W 007°08'815.9
2017-May-20 01:59N 51°59' W 006°55'715.9
2017-May-20 01:30N 52°01' W 006°43'8014.2
2017-May-19 19:55N 53°13' W 005°47'717.1
2017-May-19 19:30N 53°19' W 005°54'713.2
2017-May-19 19:00N 53°20' W 006°05'5 9.3
2017-May-19 18:30N 53°21' W 006°13'0 1.0
2017-May-19 18:00N 53°21' W 006°13'0 0.0
2017-May-19 17:18N 53°21' W 006°13'0 0.0
2017-May-19 17:00N 53°21' W 006°13'0 0.0
2017-May-19 16:29N 53°21' W 006°13'0 0.0
2017-May-19 15:47N 53°21' W 006°13'0 0.0
2017-May-19 15:08N 53°21' W 006°13'0 0.0
2017-May-19 14:53N 53°21' W 006°13'0 0.0
2017-May-19 13:46N 53°21' W 006°13'0 0.0
2017-May-19 13:28N 53°21' W 006°13'0 0.0
2017-May-19 12:59N 53°21' W 006°13'0 0.0
2017-May-19 12:22N 53°21' W 006°13'0 0.0
2017-May-19 12:00N 53°21' W 006°13'0 0.0
2017-May-19 11:30N 53°21' W 006°13'0 0.0
2017-May-19 10:55N 53°21' W 006°13'1 1.6
2017-May-19 10:31N 53°21' W 006°12'4 8.8
2017-May-19 10:00N 53°20' W 006°05'510.4
2017-May-19 09:30N 53°24' W 005°59'612.5
2017-May-19 09:00N 53°30' W 005°55'1012.3
2017-May-19 08:13N 53°39' W 005°48'312.4
2017-May-19 08:00N 53°41' W 005°46'612.5
2017-May-19 07:30N 53°47' W 005°43'713.8
2017-May-19 07:00N 53°53' W 005°39'815.2
2017-May-19 06:30N 54°00' W 005°34'715.0
2017-May-19 06:00N 54°07' W 005°27'714.8
2017-May-19 05:30N 54°13' W 005°21'714.7
2017-May-19 05:00N 54°20' W 005°16'713.7
2017-May-19 04:30N 54°27' W 005°13'714.9
2017-May-19 04:00N 54°34' W 005°17'815.5
2017-May-19 03:30N 54°41' W 005°22'815.8
2017-May-19 03:00N 54°48' W 005°29'815.9
2017-May-19 02:30N 54°55' W 005°35'815.8
2017-May-19 01:59N 55°02' W 005°43'1416.4
2017-May-19 01:07N 55°13' W 005°57'316.9
2017-May-19 00:58N 55°15' W 006°00'816.0
2017-May-19 00:29N 55°21' W 006°10'815.7
2017-May-19 00:00N 55°23' W 006°22'815.1
2017-May-18 23:30N 55°24' W 006°35'814.8
2017-May-18 23:00N 55°26' W 006°48'714.5
2017-May-18 22:30N 55°27' W 007°01'814.4
2017-May-18 21:58N 55°28' W 007°14'814.2
2017-May-18 21:26N 55°27' W 007°27'1014.1
2017-May-18 20:44N 55°24' W 007°44'414.3
2017-May-18 20:28N 55°23' W 007°50'714.5
2017-May-18 19:58N 55°21' W 008°03'714.2
2017-May-18 19:29N 55°19' W 008°15'613.2
2017-May-18 18:59N 55°15' W 008°23'814.1
2017-May-18 18:27N 55°08' W 008°30'814.4
2017-May-18 17:52N 55°01' W 008°38'  

Dump ship's entire track history